Time;durP1;ratioP1;P1;durP2;ratioP2;P2;SDS_P1;SDS_P2;PMS_P1;PMS_P2;Temp;Humidity;BMP_temperature;BMP_pressure;BME280_temperature;BME280_humidity;BME280_pressure;Samples;Min_cycle;Max_cycle;Signal;HPM_P1;HPM_P2
2023/06/11 00:00:47;;;;;;;3.95;1.70;;;23.80;1.00;;;;;;4878782;29;20049;-46
2023/06/11 00:03:20;;;;;;;4.22;1.50;;;23.80;1.00;;;;;;4879317;29;20532;-48
2023/06/11 00:05:48;;;;;;;6.30;1.63;;;23.80;1.00;;;;;;4884023;29;20049;-46
2023/06/11 00:08:14;;;;;;;10.15;2.63;;;23.80;1.00;;;;;;4878553;29;20085;-48
2023/06/11 00:10:41;;;;;;;6.35;1.55;;;23.80;1.00;;;;;;4878166;29;20493;-47
2023/06/11 00:13:08;;;;;;;4.28;1.67;;;23.80;1.00;;;;;;4877974;29;20420;-46
2023/06/11 00:15:35;;;;;;;3.63;1.77;;;23.80;1.00;;;;;;4881979;29;20128;-47
2023/06/11 00:18:02;;;;;;;4.82;2.53;;;23.80;1.00;;;;;;4882099;29;20045;-46
2023/06/11 00:20:29;;;;;;;3.92;1.30;;;23.70;1.00;;;;;;4881857;29;20049;-46
2023/06/11 00:22:56;;;;;;;5.63;2.33;;;23.70;1.00;;;;;;4882096;29;20052;-47
2023/06/11 00:25:23;;;;;;;4.15;1.67;;;23.80;1.00;;;;;;4882022;29;20049;-47
2023/06/11 00:27:49;;;;;;;3.38;1.75;;;23.80;1.00;;;;;;4880713;29;20057;-47
2023/06/11 00:30:16;;;;;;;6.97;1.63;;;23.70;1.00;;;;;;4880531;29;20063;-46
2023/06/11 00:32:43;;;;;;;7.55;2.95;;;23.70;1.00;;;;;;4880720;29;20370;-46
2023/06/11 00:35:10;;;;;;;4.93;1.98;;;23.70;1.00;;;;;;4880728;29;20045;-46
2023/06/11 00:37:37;;;;;;;5.20;2.20;;;23.70;1.00;;;;;;4882008;29;20047;-47
2023/06/11 00:40:06;;;;;;;4.32;1.55;;;23.70;1.00;;;;;;4881756;29;20041;-47
2023/06/11 00:42:33;;;;;;;5.18;2.70;;;23.70;1.00;;;;;;4880331;29;20080;-47
2023/06/11 00:45:04;;;;;;;3.72;1.40;;;23.70;1.00;;;;;;4881711;29;20049;-50
2023/06/11 00:47:31;;;;;;;4.40;1.75;;;23.70;1.00;;;;;;4880281;29;20551;-46
2023/06/11 00:50:00;;;;;;;4.97;1.77;;;23.70;1.00;;;;;;4880071;29;20063;-46
2023/06/11 00:52:27;;;;;;;3.40;1.88;;;23.70;1.00;;;;;;4881752;29;20529;-46
2023/06/11 00:54:54;;;;;;;3.97;1.65;;;23.70;1.00;;;;;;4881616;29;20037;-46
2023/06/11 00:57:35;;;;;;;2.95;1.70;;;23.70;1.00;;;;;;4881381;29;20111;-46
2023/06/11 01:00:03;;;;;;;4.57;1.92;;;23.70;1.00;;;;;;4880102;29;20049;-49
2023/06/11 01:02:43;;;;;;;4.20;2.30;;;23.70;1.00;;;;;;4881682;29;20044;-47
2023/06/11 01:05:17;;;;;;;3.35;2.08;;;23.60;1.00;;;;;;4880354;29;20126;-48
2023/06/11 01:07:51;;;;;;;5.82;1.90;;;23.60;1.00;;;;;;4880063;29;20057;-48
2023/06/11 01:10:26;;;;;;;3.70;1.35;;;23.60;1.00;;;;;;4879833;29;20105;-46
2023/06/11 01:12:55;;;;;;;3.40;2.08;;;23.60;1.00;;;;;;4879663;29;20485;-46
2023/06/11 01:15:21;;;;;;;9.70;2.08;;;23.60;1.00;;;;;;4879965;29;20097;-47
2023/06/11 01:18:06;;;;;;;3.78;1.80;;;23.60;1.00;;;;;;4881083;29;20048;-46
2023/06/11 01:20:40;;;;;;;3.72;2.00;;;23.60;1.00;;;;;;4879330;29;20057;-47
2023/06/11 01:23:15;;;;;;;7.05;2.10;;;23.60;1.00;;;;;;4879510;29;20045;-47
2023/06/11 01:25:59;;;;;;;4.60;1.90;;;23.60;1.00;;;;;;4879565;29;20053;-46
2023/06/11 01:28:30;;;;;;;3.22;1.92;;;23.60;1.00;;;;;;4879431;29;20403;-49
2023/06/11 01:31:04;;;;;;;2.85;1.88;;;23.60;1.00;;;;;;4879194;29;20144;-46
2023/06/11 01:33:35;;;;;;;2.72;1.80;;;23.60;1.00;;;;;;4879622;29;20084;-47
2023/06/11 01:36:05;;;;;;;5.95;1.80;;;23.60;1.00;;;;;;4879567;29;20049;-46
2023/06/11 01:38:41;;;;;;;6.25;1.80;;;23.60;1.00;;;;;;4879243;29;20137;-46
2023/06/11 01:41:14;;;;;;;5.35;2.47;;;23.60;1.00;;;;;;4876716;29;20189;-46
2023/06/11 01:43:42;;;;;;;5.65;2.38;;;23.60;1.00;;;;;;4874904;29;20052;-47
2023/06/11 01:46:09;;;;;;;3.53;2.00;;;23.60;1.00;;;;;;4879244;29;20120;-46
2023/06/11 01:48:36;;;;;;;2.65;1.65;;;23.60;1.00;;;;;;4880718;29;20409;-46
2023/06/11 01:51:03;;;;;;;3.50;1.58;;;23.60;1.00;;;;;;4879047;29;20053;-48
2023/06/11 01:53:30;;;;;;;3.30;2.08;;;23.60;1.00;;;;;;4879273;29;20438;-46
2023/06/11 01:55:58;;;;;;;4.28;1.92;;;23.60;1.00;;;;;;4879245;29;20100;-46
2023/06/11 01:58:25;;;;;;;3.28;2.03;;;23.60;1.00;;;;;;4879248;29;20053;-47
2023/06/11 02:00:53;;;;;;;4.57;1.92;;;23.60;1.00;;;;;;4878953;29;20394;-46
2023/06/11 02:03:20;;;;;;;3.70;1.80;;;23.60;1.00;;;;;;4879311;29;20072;-46
2023/06/11 02:05:47;;;;;;;4.30;1.85;;;23.50;1.00;;;;;;4887874;29;20402;-47
2023/06/11 02:08:15;;;;;;;5.85;1.80;;;23.60;1.00;;;;;;4879942;29;20501;-46
2023/06/11 02:10:43;;;;;;;3.53;1.85;;;23.50;1.00;;;;;;4878928;29;20045;-46
2023/06/11 02:13:10;;;;;;;5.63;1.80;;;23.50;1.00;;;;;;4878689;29;20136;-46
2023/06/11 02:15:37;;;;;;;2.75;1.40;;;23.50;1.00;;;;;;4880105;29;20045;-46
2023/06/11 02:18:05;;;;;;;4.10;1.80;;;23.50;1.00;;;;;;4878772;29;20044;-46
2023/06/11 02:20:32;;;;;;;5.85;1.90;;;23.50;1.00;;;;;;4879691;29;20053;-47
2023/06/11 02:22:59;;;;;;;4.43;2.03;;;23.50;1.00;;;;;;4878790;29;20049;-46
2023/06/11 02:25:26;;;;;;;4.00;1.85;;;23.50;1.00;;;;;;4880072;29;20493;-46
2023/06/11 02:27:54;;;;;;;3.95;1.65;;;23.50;1.00;;;;;;4879086;29;20075;-49
2023/06/11 02:30:21;;;;;;;2.55;1.73;;;23.50;1.00;;;;;;4870930;29;20097;-46
2023/06/11 02:32:48;;;;;;;5.90;2.08;;;23.50;1.00;;;;;;4879723;29;20124;-46
2023/06/11 02:35:15;;;;;;;4.45;2.20;;;23.50;1.00;;;;;;4878527;29;20053;-46
2023/06/11 02:37:42;;;;;;;4.75;2.20;;;23.50;1.00;;;;;;4878149;29;20168;-46
2023/06/11 02:40:09;;;;;;;4.15;1.58;;;23.50;1.00;;;;;;4879648;29;20655;-45
2023/06/11 02:42:36;;;;;;;4.07;1.45;;;23.40;1.00;;;;;;4879717;29;20044;-47
2023/06/11 02:45:05;;;;;;;6.57;2.20;;;23.40;1.00;;;;;;4878675;29;20112;-48
2023/06/11 02:47:32;;;;;;;5.70;1.70;;;23.40;1.00;;;;;;4879746;29;20150;-46
2023/06/11 02:49:58;;;;;;;3.30;2.08;;;23.40;1.00;;;;;;4878292;29;20056;-46
2023/06/11 02:52:25;;;;;;;4.05;1.85;;;23.40;1.00;;;;;;4878540;29;20508;-46
2023/06/11 02:54:52;;;;;;;3.92;2.40;;;23.40;1.00;;;;;;4878404;29;20466;-47
2023/06/11 02:57:19;;;;;;;5.28;2.03;;;23.40;1.00;;;;;;4878363;29;20049;-46
2023/06/11 02:59:46;;;;;;;5.18;1.92;;;23.40;1.00;;;;;;4879581;29;20139;-48
2023/06/11 03:02:13;;;;;;;2.97;1.85;;;23.40;1.00;;;;;;4877896;29;20041;-46
2023/06/11 03:04:40;;;;;;;6.15;2.25;;;23.40;1.00;;;;;;4883968;29;20413;-46
2023/06/11 03:07:07;;;;;;;3.47;1.52;;;23.40;1.00;;;;;;4864599;29;20083;-47
2023/06/11 03:09:34;;;;;;;4.88;1.95;;;23.40;1.00;;;;;;4877860;29;20071;-46
2023/06/11 03:12:01;;;;;;;4.57;2.15;;;23.40;1.00;;;;;;4877547;29;20053;-48
2023/06/11 03:14:29;;;;;;;3.45;2.30;;;23.40;1.00;;;;;;4876749;29;20139;-46
2023/06/11 03:16:56;;;;;;;3.67;2.15;;;23.40;1.00;;;;;;4877076;29;20049;-46
2023/06/11 03:19:23;;;;;;;3.28;2.10;;;23.40;1.00;;;;;;4877074;29;20451;-46
2023/06/11 03:21:53;;;;;;;5.28;2.72;;;23.40;1.00;;;;;;4893005;29;20519;-47
2023/06/11 03:24:19;;;;;;;4.15;2.15;;;23.40;1.00;;;;;;4877304;29;20051;-46
2023/06/11 03:26:48;;;;;;;4.45;2.05;;;23.40;1.00;;;;;;4893041;29;20056;-46
2023/06/11 03:29:14;;;;;;;5.18;2.25;;;23.40;1.00;;;;;;4877265;29;20076;-45
2023/06/11 03:31:46;;;;;;;3.08;1.50;;;23.40;1.00;;;;;;4877580;29;20609;-46
2023/06/11 03:34:13;;;;;;;3.83;1.98;;;23.40;1.00;;;;;;4877415;29;20048;-46
2023/06/11 03:36:40;;;;;;;2.20;1.52;;;23.40;1.00;;;;;;4877850;29;20085;-46
2023/06/11 03:39:12;;;;;;;4.70;2.07;;;23.40;1.00;;;;;;4893152;29;20045;-48
2023/06/11 03:41:39;;;;;;;3.25;1.80;;;23.40;1.00;;;;;;4878794;29;20052;-48
2023/06/11 03:44:07;;;;;;;3.72;2.05;;;23.40;1.00;;;;;;4877726;29;20065;-45
2023/06/11 03:46:34;;;;;;;4.93;2.03;;;23.30;1.00;;;;;;4878621;29;20048;-46
2023/06/11 03:49:01;;;;;;;5.53;2.00;;;23.30;1.00;;;;;;4879448;29;20045;-46
2023/06/11 03:51:29;;;;;;;3.22;2.08;;;23.30;1.00;;;;;;4881483;29;20056;-48
2023/06/11 03:53:56;;;;;;;2.95;1.83;;;23.30;1.00;;;;;;4881272;29;20422;-46
2023/06/11 03:56:23;;;;;;;2.70;1.92;;;23.30;1.00;;;;;;4882446;29;20040;-47
2023/06/11 03:58:50;;;;;;;5.47;2.28;;;23.30;1.00;;;;;;4896919;29;20049;-46
2023/06/11 04:01:17;;;;;;;2.78;1.75;;;23.30;1.00;;;;;;4880923;29;20132;-46
2023/06/11 04:03:44;;;;;;;5.40;2.00;;;23.30;1.00;;;;;;4881162;29;20438;-46
2023/06/11 04:06:11;;;;;;;3.70;2.50;;;23.30;1.00;;;;;;4881023;29;20068;-46
2023/06/11 04:08:38;;;;;;;2.92;2.33;;;23.30;1.00;;;;;;4880961;29;20053;-46
2023/06/11 04:11:05;;;;;;;4.05;2.20;;;23.30;1.00;;;;;;4880565;29;20549;-46
2023/06/11 04:13:33;;;;;;;3.50;2.28;;;23.30;1.00;;;;;;4880987;29;20067;-46
2023/06/11 04:16:00;;;;;;;2.83;1.70;;;23.30;1.00;;;;;;4881668;29;20041;-46
2023/06/11 04:18:30;;;;;;;3.70;2.63;;;23.30;1.00;;;;;;4880521;29;20052;-46
2023/06/11 04:20:58;;;;;;;3.58;2.42;;;23.30;1.00;;;;;;4880604;29;20513;-46
2023/06/11 04:23:25;;;;;;;5.40;2.88;;;23.30;1.00;;;;;;4882153;29;20081;-46
2023/06/11 04:25:54;;;;;;;3.88;3.03;;;23.30;1.00;;;;;;4880997;29;20065;-46
2023/06/11 04:28:21;;;;;;;3.20;2.30;;;23.30;1.00;;;;;;4888362;29;20045;-49
2023/06/11 04:30:48;;;;;;;5.68;3.10;;;23.30;1.00;;;;;;4880404;29;20052;-46
2023/06/11 04:33:16;;;;;;;4.47;2.10;;;23.30;1.00;;;;;;4880506;29;20501;-46
2023/06/11 04:35:44;;;;;;;3.50;2.47;;;23.30;1.00;;;;;;4880443;29;20111;-47
2023/06/11 04:38:11;;;;;;;4.30;2.90;;;23.30;1.00;;;;;;4881602;29;20041;-46
2023/06/11 04:40:39;;;;;;;2.72;2.10;;;23.30;1.00;;;;;;4880026;29;20127;-47
2023/06/11 04:43:07;;;;;;;3.22;1.98;;;23.30;1.00;;;;;;4881457;29;20029;-47
2023/06/11 04:45:36;;;;;;;3.25;2.55;;;23.20;1.00;;;;;;4880779;29;20505;-46
2023/06/11 04:48:03;;;;;;;3.20;2.33;;;23.20;1.00;;;;;;4880552;29;20447;-48
2023/06/11 04:50:32;;;;;;;3.83;2.75;;;23.20;1.00;;;;;;4879696;29;20041;-46
2023/06/11 04:53:01;;;;;;;2.95;2.03;;;23.20;1.00;;;;;;4880476;29;20512;-46
2023/06/11 04:55:32;;;;;;;3.67;2.67;;;23.20;1.00;;;;;;4888116;29;20045;-46
2023/06/11 04:58:00;;;;;;;3.35;2.40;;;23.20;1.00;;;;;;4881517;29;20048;-45
2023/06/11 05:00:28;;;;;;;2.60;2.22;;;23.20;1.00;;;;;;4879216;29;20059;-46
2023/06/11 05:02:56;;;;;;;3.25;2.70;;;23.20;1.00;;;;;;4879859;29;20077;-46
2023/06/11 05:05:23;;;;;;;3.83;2.53;;;23.20;1.00;;;;;;4881215;29;20048;-48
2023/06/11 05:07:51;;;;;;;3.35;2.50;;;23.20;1.00;;;;;;4880203;29;20036;-49
2023/06/11 05:10:18;;;;;;;4.28;2.25;;;23.20;1.00;;;;;;4880429;29;20053;-46
2023/06/11 05:12:45;;;;;;;7.28;3.13;;;23.20;1.00;;;;;;4880078;29;20044;-48
2023/06/11 05:15:12;;;;;;;3.85;2.90;;;23.20;1.00;;;;;;4880071;29;20104;-47
2023/06/11 05:17:40;;;;;;;4.18;2.92;;;23.20;1.00;;;;;;4879378;29;20109;-50
2023/06/11 05:20:08;;;;;;;9.63;4.22;;;23.20;1.00;;;;;;4881545;29;20036;-50
2023/06/11 05:22:35;;;;;;;6.47;4.82;;;23.20;1.00;;;;;;4880096;29;20093;-48
2023/06/11 05:25:02;;;;;;;12.05;4.97;;;23.20;1.00;;;;;;4880402;29;20105;-47
2023/06/11 05:27:29;;;;;;;8.23;4.55;;;23.20;1.00;;;;;;4881469;29;20056;-49
2023/06/11 05:29:59;;;;;;;6.63;4.68;;;23.20;1.00;;;;;;4879627;29;20565;-51
2023/06/11 05:32:30;;;;;;;8.98;6.13;;;23.20;1.00;;;;;;4895445;29;20083;-48
2023/06/11 05:34:59;;;;;;;7.65;4.90;;;23.10;1.00;;;;;;4879827;29;20052;-50
2023/06/11 05:37:26;;;;;;;9.05;5.20;;;23.10;1.00;;;;;;4876519;29;20045;-53
2023/06/11 05:39:53;;;;;;;7.50;5.97;;;23.10;1.00;;;;;;4887894;29;20044;-49
2023/06/11 05:42:21;;;;;;;6.93;5.55;;;23.10;1.00;;;;;;4873539;29;20041;-52
2023/06/11 05:44:48;;;;;;;9.02;5.82;;;23.20;1.00;;;;;;4877311;29;20041;-48
2023/06/11 05:47:15;;;;;;;8.20;5.05;;;23.10;1.00;;;;;;4891324;29;20077;-46
2023/06/11 05:49:43;;;;;;;8.45;5.68;;;23.10;1.00;;;;;;4878759;29;20040;-47
2023/06/11 05:52:10;;;;;;;8.55;5.82;;;23.10;1.00;;;;;;4877060;29;20049;-49
2023/06/11 05:54:37;;;;;;;6.90;5.47;;;23.10;1.00;;;;;;4879164;29;20055;-50
2023/06/11 05:57:08;;;;;;;7.28;5.57;;;23.10;1.00;;;;;;4886809;29;20044;-46
2023/06/11 05:59:35;;;;;;;7.43;5.18;;;23.20;1.00;;;;;;4883458;29;20041;-48
2023/06/11 06:02:02;;;;;;;6.55;5.80;;;23.20;1.00;;;;;;4875885;29;20096;-48
2023/06/11 06:04:31;;;;;;;7.00;5.90;;;23.20;1.00;;;;;;4880115;29;20478;-48
2023/06/11 06:06:58;;;;;;;6.88;5.75;;;23.20;1.00;;;;;;4886938;29;20135;-51
2023/06/11 06:09:24;;;;;;;9.15;4.80;;;23.20;1.00;;;;;;4878951;29;20109;-49
2023/06/11 06:11:51;;;;;;;7.85;5.65;;;23.20;1.00;;;;;;4872822;29;20109;-47
2023/06/11 06:14:19;;;;;;;7.78;5.75;;;23.20;1.00;;;;;;4884655;29;20057;-47
2023/06/11 06:16:49;;;;;;;10.20;6.00;;;23.30;1.00;;;;;;4883934;29;20045;-46
2023/06/11 06:19:21;;;;;;;18.15;7.32;;;23.30;1.00;;;;;;4879014;29;20056;-49
2023/06/11 06:21:48;;;;;;;8.10;6.15;;;23.30;1.00;;;;;;4876741;29;20289;-46
2023/06/11 06:24:15;;;;;;;11.15;6.50;;;23.30;1.00;;;;;;4887690;29;20089;-47
2023/06/11 06:26:43;;;;;;;8.20;5.63;;;23.30;1.00;;;;;;4879885;29;20045;-47
2023/06/11 06:29:14;;;;;;;10.02;5.47;;;23.30;1.00;;;;;;4879873;29;20049;-49
2023/06/11 06:31:41;;;;;;;7.10;6.07;;;23.40;1.00;;;;;;4885283;29;20045;-47
2023/06/11 06:34:08;;;;;;;9.45;5.93;;;23.40;1.00;;;;;;4875930;29;20045;-48
2023/06/11 06:36:38;;;;;;;8.18;5.13;;;23.40;1.00;;;;;;4886410;29;20410;-48
2023/06/11 06:39:06;;;;;;;6.32;5.32;;;23.40;1.00;;;;;;4880102;29;20089;-46
2023/06/11 06:41:33;;;;;;;6.53;5.80;;;23.40;1.00;;;;;;4863043;29;20455;-48
2023/06/11 06:44:07;;;;;;;9.57;5.68;;;23.40;1.00;;;;;;4878684;29;20085;-47
2023/06/11 06:46:34;;;;;;;8.25;5.60;;;23.50;1.00;;;;;;4878674;29;20053;-47
2023/06/11 06:49:03;;;;;;;7.43;5.70;;;23.50;1.00;;;;;;4879061;29;20394;-48
2023/06/11 06:51:30;;;;;;;7.18;5.88;;;23.50;1.00;;;;;;4879751;29;20117;-50
2023/06/11 06:53:57;;;;;;;12.00;6.90;;;23.50;1.00;;;;;;4861564;29;20065;-47
2023/06/11 06:56:24;;;;;;;8.70;5.80;;;23.50;1.00;;;;;;4875393;29;20128;-47
2023/06/11 06:58:51;;;;;;;8.82;5.68;;;23.60;1.00;;;;;;4877648;29;20097;-45
2023/06/11 07:01:18;;;;;;;6.70;5.60;;;23.60;1.00;;;;;;4877802;29;20049;-45
2023/06/11 07:03:45;;;;;;;12.45;5.72;;;23.60;1.00;;;;;;4877973;29;20045;-49
2023/06/11 07:06:12;;;;;;;6.43;5.55;;;23.60;1.00;;;;;;4879898;29;20112;-46
2023/06/11 07:08:40;;;;;;;8.10;5.03;;;23.60;1.00;;;;;;4877944;29;20049;-47
2023/06/11 07:11:08;;;;;;;7.78;5.28;;;23.60;1.00;;;;;;4877447;29;20053;-48
2023/06/11 07:13:41;;;;;;;7.15;5.38;;;23.60;1.00;;;;;;4878022;29;20108;-45
2023/06/11 07:16:10;;;;;;;5.93;5.30;;;23.70;1.00;;;;;;4877682;29;20517;-47
2023/06/11 07:18:40;;;;;;;6.78;4.82;;;23.70;1.00;;;;;;4870371;29;20128;-45
2023/06/11 07:21:09;;;;;;;9.98;5.72;;;23.70;1.00;;;;;;4874186;29;20047;-48
2023/06/11 07:23:36;;;;;;;6.10;5.07;;;23.70;1.00;;;;;;4873115;29;20045;-45
2023/06/11 07:26:05;;;;;;;7.20;4.47;;;23.70;1.00;;;;;;4875558;29;20077;-45
2023/06/11 07:28:32;;;;;;;6.65;5.53;;;23.70;1.00;;;;;;4892653;29;20263;-47
2023/06/11 07:30:59;;;;;;;6.97;4.88;;;23.80;1.00;;;;;;4871779;29;20136;-46
2023/06/11 07:33:28;;;;;;;5.80;4.80;;;23.80;1.00;;;;;;4870499;29;20057;-45
2023/06/11 07:35:56;;;;;;;7.03;5.47;;;23.80;1.00;;;;;;4870280;29;20080;-45
2023/06/11 07:38:24;;;;;;;12.32;5.45;;;23.80;1.00;;;;;;4874696;29;20045;-47
2023/06/11 07:40:51;;;;;;;6.88;5.93;;;23.80;1.00;;;;;;4874525;29;20037;-47
2023/06/11 07:43:20;;;;;;;8.23;5.75;;;23.80;1.00;;;;;;4872769;29;20049;-47
2023/06/11 07:45:48;;;;;;;8.27;6.35;;;23.80;1.00;;;;;;4878887;29;20049;-47
2023/06/11 07:48:16;;;;;;;6.65;5.90;;;23.80;1.00;;;;;;4878527;29;20156;-48
2023/06/11 07:50:44;;;;;;;10.85;7.07;;;23.80;1.00;;;;;;4880421;29;20132;-48
2023/06/11 07:53:13;;;;;;;9.32;6.28;;;23.80;1.00;;;;;;4877022;29;20144;-48
2023/06/11 07:55:41;;;;;;;10.90;6.95;;;23.80;1.00;;;;;;4896047;29;20077;-47
2023/06/11 07:58:08;;;;;;;12.77;6.07;;;23.90;1.00;;;;;;4881623;29;20104;-47
2023/06/11 08:00:35;;;;;;;16.15;6.72;;;23.90;1.00;;;;;;4884456;29;20037;-49
2023/06/11 08:03:02;;;;;;;8.00;6.72;;;23.90;1.00;;;;;;4880843;29;20137;-47
2023/06/11 08:05:29;;;;;;;12.05;7.03;;;23.90;1.00;;;;;;4881082;29;20037;-46
2023/06/11 08:07:56;;;;;;;8.95;6.93;;;23.90;1.00;;;;;;4878091;29;20049;-47
2023/06/11 08:10:23;;;;;;;9.63;6.28;;;23.90;1.00;;;;;;4877600;29;20041;-48
2023/06/11 08:12:50;;;;;;;7.90;6.10;;;23.90;1.00;;;;;;4874581;29;20041;-48
2023/06/11 08:15:17;;;;;;;8.68;6.75;;;24.00;1.00;;;;;;4878829;29;20045;-48
2023/06/11 08:17:45;;;;;;;7.40;6.60;;;24.00;1.00;;;;;;4873093;29;20125;-52
2023/06/11 08:20:12;;;;;;;8.93;7.18;;;24.00;1.00;;;;;;4875202;29;20425;-52
2023/06/11 08:22:41;;;;;;;11.90;6.75;;;24.00;1.00;;;;;;4870573;29;20041;-51
2023/06/11 08:25:09;;;;;;;9.13;6.43;;;24.00;1.00;;;;;;4878291;29;20401;-50
2023/06/11 08:27:36;;;;;;;6.40;5.72;;;24.00;1.00;;;;;;4877874;29;20056;-49
2023/06/11 08:30:04;;;;;;;6.95;6.25;;;24.00;1.00;;;;;;4877866;29;21968;-49
2023/06/11 08:32:30;;;;;;;8.25;6.85;;;24.00;1.00;;;;;;4877801;29;20048;-48
2023/06/11 08:34:57;;;;;;;7.18;5.45;;;24.00;1.00;;;;;;4879605;29;20520;-50
2023/06/11 08:37:24;;;;;;;7.93;6.20;;;24.00;1.00;;;;;;4881251;29;20045;-48
2023/06/11 08:39:51;;;;;;;7.18;6.47;;;24.00;1.00;;;;;;4881171;29;20045;-50
2023/06/11 08:42:18;;;;;;;6.55;5.80;;;24.00;1.00;;;;;;4881056;29;20045;-50
2023/06/11 08:44:46;;;;;;;11.63;6.10;;;24.00;1.00;;;;;;4881254;29;20067;-51
2023/06/11 08:47:15;;;;;;;6.63;5.43;;;24.00;1.00;;;;;;4882280;29;20525;-49
2023/06/11 08:49:44;;;;;;;10.13;5.82;;;24.00;1.00;;;;;;4882181;29;20056;-48
2023/06/11 08:52:13;;;;;;;6.40;5.72;;;24.00;1.00;;;;;;4882041;29;20041;-51
2023/06/11 08:54:40;;;;;;;9.43;6.80;;;24.10;1.00;;;;;;4882266;29;20055;-47
2023/06/11 08:57:08;;;;;;;8.48;5.60;;;24.10;1.00;;;;;;4882628;29;20076;-52
2023/06/11 08:59:35;;;;;;;6.05;5.45;;;24.10;1.00;;;;;;4882401;29;20064;-51
2023/06/11 09:02:03;;;;;;;7.95;5.88;;;24.10;1.00;;;;;;4880885;29;20037;-50
2023/06/11 09:04:31;;;;;;;7.68;5.50;;;24.10;1.00;;;;;;4883399;29;20041;-51
2023/06/11 09:06:59;;;;;;;7.38;5.97;;;24.10;1.00;;;;;;4879733;29;20128;-49
2023/06/11 09:09:27;;;;;;;6.90;5.70;;;24.10;1.00;;;;;;4880048;29;20412;-51
2023/06/11 09:11:54;;;;;;;10.02;6.13;;;24.10;1.00;;;;;;4881141;29;20045;-50
2023/06/11 09:14:21;;;;;;;6.93;5.78;;;24.10;1.00;;;;;;4881076;29;20041;-47
2023/06/11 09:16:48;;;;;;;7.82;6.13;;;24.10;1.00;;;;;;4880065;29;20572;-51
2023/06/11 09:19:17;;;;;;;7.93;5.90;;;24.10;1.00;;;;;;4880773;29;20504;-48
2023/06/11 09:21:56;;;;;;;7.43;5.53;;;24.20;1.00;;;;;;4872546;29;20068;-51
2023/06/11 09:24:24;;;;;;;9.35;5.55;;;24.20;1.00;;;;;;4880726;29;20041;-50
2023/06/11 09:26:56;;;;;;;8.40;5.70;;;24.20;1.00;;;;;;4880940;29;20137;-52
2023/06/11 09:29:24;;;;;;;6.20;5.60;;;24.20;1.00;;;;;;4879583;29;20057;-47
2023/06/11 09:32:10;;;;;;;5.53;5.03;;;24.20;1.00;;;;;;4880801;29;20049;-48
2023/06/11 09:34:57;;;;;;;7.38;5.45;;;24.20;1.00;;;;;;4880031;29;20049;-47
2023/06/11 09:37:24;;;;;;;6.45;5.65;;;24.20;1.00;;;;;;4880664;29;20132;-50
2023/06/11 09:39:51;;;;;;;8.10;6.30;;;24.20;1.00;;;;;;4880215;29;20116;-51
2023/06/11 09:42:26;;;;;;;8.00;5.80;;;24.20;1.00;;;;;;4879842;29;20041;-51
2023/06/11 09:44:58;;;;;;;6.07;5.45;;;24.20;1.00;;;;;;4880698;29;20045;-51
2023/06/11 09:47:28;;;;;;;7.28;5.25;;;24.20;1.00;;;;;;4879738;29;20049;-51
2023/06/11 09:49:56;;;;;;;12.70;6.35;;;24.20;1.00;;;;;;4879147;29;20059;-52
2023/06/11 09:52:23;;;;;;;6.90;6.28;;;24.20;1.00;;;;;;4880293;29;20064;-47
2023/06/11 09:54:51;;;;;;;6.57;5.85;;;24.20;1.00;;;;;;4880555;29;20049;-48
2023/06/11 09:57:18;;;;;;;8.52;5.93;;;24.20;1.00;;;;;;4880114;29;20597;-49
2023/06/11 09:59:45;;;;;;;6.22;5.60;;;24.20;1.00;;;;;;4879943;29;20033;-51
2023/06/11 10:02:12;;;;;;;9.30;5.97;;;24.20;1.00;;;;;;4880189;29;20048;-51
2023/06/11 10:04:40;;;;;;;6.53;5.57;;;24.30;1.00;;;;;;4883302;29;20080;-50
2023/06/11 10:07:10;;;;;;;6.13;5.53;;;24.30;1.00;;;;;;4880149;29;20446;-50
2023/06/11 10:09:38;;;;;;;6.82;6.13;;;24.20;1.00;;;;;;4880121;29;20053;-48
2023/06/11 10:12:06;;;;;;;6.93;5.57;;;24.20;1.00;;;;;;4878479;29;20045;-51
2023/06/11 10:14:34;;;;;;;7.55;6.03;;;24.30;1.00;;;;;;4879564;29;20105;-49
2023/06/11 10:17:07;;;;;;;8.20;6.15;;;24.20;1.00;;;;;;4879594;29;20520;-50
2023/06/11 10:19:38;;;;;;;7.38;5.82;;;24.30;1.00;;;;;;4879536;29;20079;-47
2023/06/11 10:22:06;;;;;;;5.97;5.32;;;24.30;1.00;;;;;;4879472;29;20061;-47
2023/06/11 10:24:32;;;;;;;7.05;5.82;;;24.30;1.00;;;;;;4879628;29;20041;-47
2023/06/11 10:27:08;;;;;;;9.20;6.18;;;24.30;1.00;;;;;;4879287;29;20094;-49
2023/06/11 10:29:42;;;;;;;7.28;5.97;;;24.30;1.00;;;;;;4879244;29;20141;-48
2023/06/11 10:32:16;;;;;;;6.75;5.75;;;24.30;1.00;;;;;;4879333;29;20476;-49
2023/06/11 10:34:44;;;;;;;6.43;5.72;;;24.30;1.00;;;;;;4879071;29;20398;-50
2023/06/11 10:37:15;;;;;;;7.43;6.10;;;24.30;1.00;;;;;;4877772;29;20040;-48
2023/06/11 10:39:51;;;;;;;7.95;5.10;;;24.30;1.00;;;;;;4878796;29;20505;-51
2023/06/11 10:42:27;;;;;;;7.03;6.32;;;24.30;1.00;;;;;;4878841;29;20045;-46
2023/06/11 10:45:00;;;;;;;6.90;6.20;;;24.30;1.00;;;;;;4879058;29;20422;-51
2023/06/11 10:47:27;;;;;;;;;;;24.40;1.00;;;;;;4879501;29;20049;-50
2023/06/11 10:50:08;;;;;;;6.47;5.28;;;24.30;1.00;;;;;;4892937;29;19923;-51
2023/06/11 10:52:56;;;;;;;7.15;6.40;;;24.30;1.00;;;;;;4877685;29;20497;-54
2023/06/11 10:55:26;;;;;;;9.18;6.40;;;24.30;1.00;;;;;;4879054;29;20071;-51
2023/06/11 10:57:53;;;;;;;7.22;6.10;;;24.30;1.00;;;;;;4878247;29;20033;-50
2023/06/11 11:00:21;;;;;;;8.23;6.82;;;24.30;1.00;;;;;;4877209;29;20429;-52
2023/06/11 11:02:50;;;;;;;9.95;5.78;;;24.30;1.00;;;;;;4878783;29;20101;-52
2023/06/11 11:05:19;;;;;;;7.70;5.95;;;24.40;1.00;;;;;;4882467;29;20041;-47
2023/06/11 11:07:45;;;;;;;8.40;6.40;;;24.30;1.00;;;;;;4878341;29;20045;-51
2023/06/11 11:10:19;;;;;;;7.38;6.57;;;24.30;1.00;;;;;;4878500;29;20056;-52
2023/06/11 11:12:47;;;;;;;6.40;5.63;;;24.30;1.00;;;;;;4878617;29;20048;-52
2023/06/11 11:15:14;;;;;;;6.78;6.10;;;24.40;1.00;;;;;;4878462;29;20041;-53
2023/06/11 11:17:43;;;;;;;8.15;7.15;;;24.30;1.00;;;;;;4878245;29;20045;-53
2023/06/11 11:20:12;;;;;;;6.07;5.47;;;24.30;1.00;;;;;;4878119;29;20041;-47
2023/06/11 11:22:39;;;;;;;7.32;6.53;;;24.30;1.00;;;;;;4878374;29;20057;-46
2023/06/11 11:25:07;;;;;;;6.25;5.65;;;24.40;1.00;;;;;;4878386;29;20049;-46
2023/06/11 11:27:37;;;;;;;7.90;5.75;;;24.40;1.00;;;;;;4878448;29;20049;-51
2023/06/11 11:30:05;;;;;;;6.55;5.95;;;24.40;1.00;;;;;;4878340;29;20517;-46
2023/06/11 11:32:34;;;;;;;6.95;6.25;;;24.30;1.00;;;;;;4878020;29;20355;-46
2023/06/11 11:35:03;;;;;;;6.32;5.72;;;24.30;1.00;;;;;;4878312;29;20404;-50
2023/06/11 11:37:30;;;;;;;8.25;6.22;;;24.40;1.00;;;;;;4878547;29;20041;-50
2023/06/11 11:40:09;;;;;;;6.90;6.10;;;24.40;1.00;;;;;;4878023;29;20064;-48
2023/06/11 11:42:51;;;;;;;7.70;6.43;;;24.40;1.00;;;;;;4877828;29;20055;-51
2023/06/11 11:45:19;;;;;;;7.13;6.43;;;24.40;1.00;;;;;;4878154;29;20141;-45
2023/06/11 11:47:51;;;;;;;6.75;6.07;;;24.40;1.00;;;;;;4876865;29;20141;-45
2023/06/11 11:50:25;;;;;;;7.40;6.43;;;24.30;1.00;;;;;;4878169;29;20048;-47
2023/06/11 11:53:03;;;;;;;9.63;7.15;;;24.40;1.00;;;;;;4874044;29;20458;-46
2023/06/11 11:55:33;;;;;;;7.85;6.97;;;24.40;1.00;;;;;;4876360;29;20057;-48
2023/06/11 11:58:11;;;;;;;10.27;7.35;;;24.40;1.00;;;;;;4878722;29;20125;-47
2023/06/11 12:00:52;;;;;;;8.23;6.88;;;24.40;1.00;;;;;;4877985;29;20041;-46
2023/06/11 12:03:21;;;;;;;8.30;7.45;;;24.40;1.00;;;;;;4878443;29;20041;-46
2023/06/11 12:06:00;;;;;;;7.25;6.55;;;24.40;1.00;;;;;;4883120;29;20047;-46
2023/06/11 12:08:29;;;;;;;11.23;8.20;;;24.40;1.00;;;;;;4875418;29;20049;-45
2023/06/11 12:10:57;;;;;;;11.23;6.97;;;24.40;1.00;;;;;;4872510;29;20049;-48
2023/06/11 12:13:24;;;;;;;9.90;8.13;;;24.40;1.00;;;;;;4880530;29;20080;-47
2023/06/11 12:15:51;;;;;;;9.52;7.88;;;24.40;1.00;;;;;;4879495;29;20097;-48
2023/06/11 12:18:18;;;;;;;11.55;7.50;;;24.40;1.00;;;;;;4881727;29;20049;-47
2023/06/11 12:20:46;;;;;;;8.18;7.35;;;24.40;1.00;;;;;;4876327;29;20052;-50
2023/06/11 12:23:14;;;;;;;12.32;6.95;;;24.40;1.00;;;;;;4878522;29;20643;-49
2023/06/11 12:25:42;;;;;;;8.82;6.57;;;24.40;1.00;;;;;;4879218;29;20132;-46
2023/06/11 12:28:09;;;;;;;9.98;7.07;;;24.40;1.00;;;;;;4886445;29;20048;-48
2023/06/11 12:30:36;;;;;;;8.45;6.55;;;24.40;1.00;;;;;;4883096;29;20053;-46
2023/06/11 12:33:03;;;;;;;8.65;6.97;;;24.50;1.00;;;;;;4881486;29;20097;-48
2023/06/11 12:35:30;;;;;;;9.80;7.57;;;24.40;1.00;;;;;;4881468;29;20525;-47
2023/06/11 12:37:57;;;;;;;8.30;7.38;;;24.40;1.00;;;;;;4874758;29;20049;-48
2023/06/11 12:40:24;;;;;;;8.13;7.32;;;24.40;1.00;;;;;;4876287;29;20052;-47
2023/06/11 12:42:56;;;;;;;8.32;7.00;;;24.50;1.00;;;;;;4876543;29;20132;-48
2023/06/11 12:45:30;;;;;;;10.90;7.68;;;24.50;1.00;;;;;;4874432;29;20105;-50
2023/06/11 12:47:57;;;;;;;10.27;7.45;;;24.40;1.00;;;;;;4877252;29;20734;-46
2023/06/11 12:50:25;;;;;;;8.10;7.07;;;24.50;1.00;;;;;;4874089;29;20045;-45
2023/06/11 12:52:54;;;;;;;11.65;6.95;;;24.50;1.00;;;;;;4873652;29;20091;-45
2023/06/11 12:55:22;;;;;;;9.00;6.63;;;24.50;1.00;;;;;;4870188;29;20044;-49
2023/06/11 12:57:48;;;;;;;7.90;7.10;;;24.50;1.00;;;;;;4879450;29;20044;-48
2023/06/11 13:00:16;;;;;;;7.25;6.40;;;24.50;1.00;;;;;;4880190;29;20124;-48
2023/06/11 13:02:43;;;;;;;12.70;7.15;;;24.50;1.00;;;;;;4889100;29;20500;-46